Observations

85.5 °F / 29.7 °C
NE at 15 MPH
68%
73.9°F / 23.3 °C
29.88" (1011 mb)
10 mile(s)
clear
2024.03.01 0100 UTC

Observations

Surface


Raw METARs

2024/03/01 01:00
PKWA 010100Z AUTO 05013KT 10SM CLR 30/23 A2988 RMK AO2 T02970233 TSNO

Translated METAR

Kwajalein, Bucholz AAF, Kwajalein KMR ATOL Airport, Marshall Islands (PKWA) 08-43N 167-44E 2M
Feb 29, 2024 - 08:00 PM EST / 2024.03.01 0100 UTC
Wind: from the NE (050 degrees) at 15 MPH (13 KT):0
Visibility: 10 mile(s):0
Sky conditions: clear
Temperature: 85.5 F (29.7 C)
Heat index: 93.0 F (33.9 C):1
Dew Point: 73.9 F (23.3 C)
Relative Humidity: 68%
Pressure (altimeter): 29.88 in. Hg (1011 hPa)
ob: PKWA 010100Z AUTO 05013KT 10SM CLR 30/23 A2988 RMK AO2 T02970233 TSNO
cycle: 1



Upper Air


Latest Skew-T

Skew T Diagram

Latest Data File